createdAt,value
2019-03-12T00:00:26.794Z,3.61
2019-03-12T00:01:26.783Z,3.53
2019-03-12T00:02:26.778Z,3.47
2019-03-12T00:03:26.773Z,3.44
2019-03-12T00:04:26.751Z,3.49
2019-03-12T00:05:26.740Z,3.57
2019-03-12T00:06:26.731Z,3.43
2019-03-12T00:07:26.720Z,3.40
2019-03-12T00:08:26.712Z,3.42
2019-03-12T00:09:26.709Z,3.34
2019-03-12T00:10:26.691Z,3.34
2019-03-12T00:11:26.678Z,3.42
2019-03-12T00:12:26.678Z,3.43
2019-03-12T00:13:26.657Z,3.43
2019-03-12T00:14:26.654Z,3.43
2019-03-12T00:15:26.654Z,3.39
2019-03-12T00:16:26.626Z,3.40
2019-03-12T00:17:26.615Z,3.36
2019-03-12T00:18:28.434Z,3.40
2019-03-12T00:19:26.593Z,3.33
2019-03-12T00:20:26.583Z,3.28
2019-03-12T00:21:26.583Z,3.36
2019-03-12T00:22:26.562Z,3.42
2019-03-12T00:23:26.554Z,3.33
2019-03-12T00:24:26.540Z,3.33
2019-03-12T00:25:26.533Z,3.33
2019-03-12T00:26:26.519Z,3.39
2019-03-12T00:27:26.518Z,3.31
2019-03-12T00:28:26.499Z,3.24
2019-03-12T00:29:26.490Z,3.31
2019-03-12T00:30:26.478Z,3.34
2019-03-12T00:31:26.467Z,3.25
2019-03-12T00:32:26.469Z,3.27
2019-03-12T00:33:26.489Z,3.24
2019-03-12T00:34:26.446Z,3.20
2019-03-12T00:35:26.427Z,3.16
2019-03-12T00:36:26.412Z,3.18
2019-03-12T00:37:26.415Z,3.15
2019-03-12T00:38:26.392Z,3.18
2019-03-12T00:39:26.392Z,3.20
2019-03-12T00:40:26.374Z,3.18
2019-03-12T00:41:26.362Z,3.06
2019-03-12T00:42:26.349Z,3.06
2019-03-12T00:43:26.338Z,3.07
2019-03-12T00:44:26.327Z,3.03
2019-03-12T00:45:26.332Z,3.10
2019-03-12T00:46:27.254Z,2.92
2019-03-12T00:47:26.295Z,2.92
2019-03-12T00:48:26.286Z,3.02
2019-03-12T00:49:26.276Z,2.98
2019-03-12T00:50:26.267Z,2.95
2019-03-12T00:51:26.265Z,2.92
2019-03-12T00:52:26.243Z,2.94
2019-03-12T00:53:26.232Z,2.89
2019-03-12T00:54:26.220Z,2.87
2019-03-12T00:55:26.209Z,2.92
2019-03-12T00:56:26.199Z,2.89
2019-03-12T00:57:26.278Z,2.87
2019-03-12T00:58:26.177Z,2.89
2019-03-12T00:59:26.167Z,2.89
2019-03-12T01:00:26.166Z,2.79
2019-03-12T01:01:26.145Z,2.82
2019-03-12T01:02:26.135Z,2.74
2019-03-12T01:03:26.138Z,2.76
2019-03-12T01:04:26.115Z,2.82
2019-03-12T01:05:26.105Z,2.74
2019-03-12T01:06:26.090Z,2.79
2019-03-12T01:07:26.080Z,2.73
2019-03-12T01:08:26.069Z,2.71
2019-03-12T01:09:26.068Z,2.70
2019-03-12T01:10:26.047Z,2.77
2019-03-12T01:11:26.036Z,2.73
2019-03-12T01:12:26.027Z,2.74
2019-03-12T01:13:26.020Z,2.76
2019-03-12T01:14:26.003Z,2.67
2019-03-12T01:15:26.075Z,2.76
2019-03-12T01:16:25.989Z,2.76
2019-03-12T01:17:25.983Z,2.70
2019-03-12T01:18:25.960Z,2.61
2019-03-12T01:19:25.949Z,2.66
2019-03-12T01:20:25.938Z,2.67
2019-03-12T01:21:25.937Z,2.58
2019-03-12T01:22:25.995Z,2.61
2019-03-12T01:23:25.906Z,2.63
2019-03-12T01:24:25.896Z,2.58
2019-03-12T01:25:25.887Z,2.67
2019-03-12T01:26:25.878Z,2.59
2019-03-12T01:27:25.892Z,2.63
2019-03-12T01:28:25.853Z,2.67
2019-03-12T01:29:25.840Z,2.66
2019-03-12T01:30:25.830Z,2.69
2019-03-12T01:31:25.819Z,2.67
2019-03-12T01:32:25.906Z,2.67
2019-03-12T01:33:25.814Z,2.71
2019-03-12T01:34:25.788Z,2.63
2019-03-12T01:35:25.784Z,2.64
2019-03-12T01:36:25.765Z,2.64
2019-03-12T01:37:25.753Z,2.64
2019-03-12T01:38:25.748Z,2.59
2019-03-12T01:39:25.744Z,2.66
2019-03-12T01:40:25.720Z,2.61
2019-03-12T01:41:25.710Z,2.67
2019-03-12T01:42:25.699Z,2.64
2019-03-12T01:43:25.688Z,2.56
2019-03-12T01:44:25.677Z,2.61
2019-03-12T01:45:25.683Z,2.59
2019-03-12T01:46:25.655Z,2.61
2019-03-12T01:47:25.649Z,2.58
2019-03-12T01:48:25.634Z,2.58
2019-03-12T01:49:25.623Z,2.59
2019-03-12T01:50:25.613Z,2.59
2019-03-12T01:51:25.707Z,2.59
2019-03-12T01:52:25.591Z,2.55
2019-03-12T01:53:25.580Z,2.52
2019-03-12T01:54:25.570Z,2.55
2019-03-12T01:55:25.560Z,2.52
2019-03-12T01:56:25.548Z,2.52
2019-03-12T01:57:25.557Z,2.55
2019-03-12T01:58:25.527Z,2.48
2019-03-12T01:59:25.517Z,2.56
2019-03-12T02:00:25.505Z,2.52
2019-03-12T02:01:25.495Z,2.52
2019-03-12T02:02:25.495Z,2.55
2019-03-12T02:03:25.485Z,2.51
2019-03-12T02:04:25.463Z,2.53
2019-03-12T02:05:25.466Z,2.48
2019-03-12T02:06:25.442Z,2.48
2019-03-12T02:07:25.432Z,2.51
2019-03-12T02:08:25.421Z,2.51
2019-03-12T02:09:25.422Z,2.49
2019-03-12T02:10:25.401Z,2.48
2019-03-12T02:11:25.390Z,2.41
2019-03-12T02:12:25.379Z,2.37
2019-03-12T02:13:25.371Z,2.41
2019-03-12T02:14:25.378Z,2.37
2019-03-12T02:15:25.358Z,2.37
2019-03-12T02:16:25.337Z,2.38
2019-03-12T02:17:25.326Z,2.40
2019-03-12T02:18:25.315Z,2.37
2019-03-12T02:19:25.305Z,2.30
2019-03-12T02:20:25.295Z,2.44
2019-03-12T02:21:25.296Z,2.30
2019-03-12T02:22:25.274Z,2.38
2019-03-12T02:23:25.263Z,2.26
2019-03-12T02:24:25.253Z,2.20
2019-03-12T02:25:25.243Z,2.34
2019-03-12T02:26:25.233Z,2.30
2019-03-12T02:27:25.234Z,2.27
2019-03-12T02:28:25.210Z,2.23
2019-03-12T02:29:25.204Z,2.27
2019-03-12T02:30:25.192Z,2.16
2019-03-12T02:31:25.182Z,2.13
2019-03-12T02:32:25.209Z,2.12
2019-03-12T02:33:25.172Z,2.15
2019-03-12T02:34:25.149Z,2.12
2019-03-12T02:35:25.170Z,2.23
2019-03-12T02:36:25.126Z,2.16
2019-03-12T02:37:25.119Z,2.17
2019-03-12T02:38:25.108Z,2.16
2019-03-12T02:39:25.107Z,2.22
2019-03-12T02:40:25.090Z,2.09
2019-03-12T02:41:25.074Z,2.08
2019-03-12T02:42:25.065Z,2.15
2019-03-12T02:43:25.058Z,2.15
2019-03-12T02:44:25.044Z,2.06
2019-03-12T02:45:25.049Z,2.06
2019-03-12T02:46:25.023Z,2.10
2019-03-12T02:47:25.013Z,2.13
2019-03-12T02:48:25.013Z,2.09
2019-03-12T02:49:25.022Z,2.09
2019-03-12T02:50:24.982Z,2.04
2019-03-12T02:51:24.990Z,2.10
2019-03-12T02:52:25.063Z,2.04
2019-03-12T02:53:24.951Z,2.04
2019-03-12T02:54:24.953Z,2.04
2019-03-12T02:55:24.930Z,2.02
2019-03-12T02:56:24.933Z,1.97
2019-03-12T02:57:24.920Z,2.02
2019-03-12T02:58:24.897Z,1.97
2019-03-12T02:59:24.887Z,2.02
2019-03-12T03:00:24.877Z,2.02
2019-03-12T03:01:24.878Z,2.08
2019-03-12T03:02:24.855Z,2.04
2019-03-12T03:03:24.858Z,2.02
2019-03-12T03:04:24.857Z,1.97
2019-03-12T03:05:24.824Z,1.98
2019-03-12T03:06:24.813Z,2.09
2019-03-12T03:07:24.803Z,1.90
2019-03-12T03:08:24.792Z,1.97
2019-03-12T03:09:24.799Z,2.08
2019-03-12T03:10:24.775Z,2.08
2019-03-12T03:11:24.766Z,2.02
2019-03-12T03:12:24.771Z,2.02
2019-03-12T03:13:24.740Z,2.02
2019-03-12T03:14:24.752Z,1.98
2019-03-12T03:15:24.732Z,2.06
2019-03-12T03:16:24.859Z,2.06
2019-03-12T03:17:24.697Z,2.02
2019-03-12T03:18:24.687Z,2.06
2019-03-12T03:19:24.676Z,1.98
2019-03-12T03:20:24.663Z,2.02
2019-03-12T03:21:24.667Z,1.97
2019-03-12T03:22:24.645Z,2.10
2019-03-12T03:23:24.634Z,2.01
2019-03-12T03:24:24.639Z,2.02
2019-03-12T03:25:24.611Z,2.08
2019-03-12T03:26:24.600Z,2.06
2019-03-12T03:27:28.980Z,2.01
2019-03-12T03:28:25.601Z,2.04
2019-03-12T03:29:24.581Z,2.04
2019-03-12T03:30:24.568Z,2.04
2019-03-12T03:31:24.555Z,2.09
2019-03-12T03:32:24.537Z,2.04
2019-03-12T03:33:24.537Z,2.02
2019-03-12T03:34:27.797Z,2.09
2019-03-12T03:35:24.505Z,2.06
2019-03-12T03:36:24.497Z,2.04
2019-03-12T03:37:24.536Z,2.09
2019-03-12T03:38:24.474Z,2.02
2019-03-12T03:39:24.475Z,2.08
2019-03-12T03:40:24.452Z,2.01
2019-03-12T03:41:24.443Z,2.04
2019-03-12T03:42:24.432Z,2.01
2019-03-12T03:43:24.435Z,1.98
2019-03-12T03:44:24.412Z,2.08
2019-03-12T03:45:24.416Z,2.02
2019-03-12T03:46:24.392Z,1.98
2019-03-12T03:47:24.383Z,2.01
2019-03-12T03:48:24.388Z,1.98
2019-03-12T03:49:24.357Z,1.91
2019-03-12T03:50:24.348Z,1.87
2019-03-12T03:51:24.344Z,1.94
2019-03-12T03:52:24.329Z,1.85
2019-03-12T03:53:24.314Z,1.90
2019-03-12T03:54:24.307Z,1.94
2019-03-12T03:55:24.337Z,1.78
2019-03-12T03:56:24.294Z,1.83
2019-03-12T03:57:24.282Z,1.80
2019-03-12T03:58:24.261Z,1.79
2019-03-12T03:59:24.370Z,1.80
2019-03-12T04:00:24.240Z,1.83
2019-03-12T04:01:24.231Z,1.80
2019-03-12T04:02:24.220Z,1.68
2019-03-12T04:03:24.217Z,1.76
2019-03-12T04:04:24.203Z,1.76
2019-03-12T04:05:24.204Z,1.75
2019-03-12T04:06:24.175Z,1.73
2019-03-12T04:07:24.165Z,1.75
2019-03-12T04:08:24.160Z,1.73
2019-03-12T04:09:24.169Z,1.73
2019-03-12T04:10:24.133Z,1.73
2019-03-12T04:11:24.121Z,1.72
2019-03-12T04:12:24.121Z,1.73
2019-03-12T04:13:24.103Z,1.75
2019-03-12T04:14:24.092Z,1.69
2019-03-12T04:15:24.093Z,1.82
2019-03-12T04:16:24.068Z,1.62
2019-03-12T04:17:24.068Z,1.82
2019-03-12T04:18:24.049Z,1.72
2019-03-12T04:19:24.041Z,1.73
2019-03-12T04:20:24.024Z,1.85
2019-03-12T04:21:24.031Z,1.80
2019-03-12T04:22:24.003Z,1.72
2019-03-12T04:23:23.993Z,1.83
2019-03-12T04:24:23.983Z,1.80
2019-03-12T04:25:23.975Z,1.80
2019-03-12T04:26:23.967Z,1.80
2019-03-12T04:27:23.961Z,1.85
2019-03-12T04:28:23.940Z,1.89
2019-03-12T04:29:23.941Z,1.83
2019-03-12T04:30:23.919Z,1.82
2019-03-12T04:31:23.908Z,1.93
2019-03-12T04:32:23.905Z,1.93
2019-03-12T04:33:23.906Z,1.91
2019-03-12T04:34:23.881Z,1.91
2019-03-12T04:35:23.886Z,1.97
2019-03-12T04:36:23.857Z,2.09
2019-03-12T04:37:23.855Z,1.97
2019-03-12T04:38:23.840Z,1.91
2019-03-12T04:39:23.860Z,1.91
2019-03-12T04:40:23.813Z,1.99
2019-03-12T04:41:23.803Z,1.99
2019-03-12T04:42:23.793Z,1.97
2019-03-12T04:43:23.785Z,2.01
2019-03-12T04:44:23.779Z,1.98
2019-03-12T04:45:23.771Z,2.02
2019-03-12T04:46:23.753Z,2.08
2019-03-12T04:47:23.744Z,1.99
2019-03-12T04:48:23.730Z,2.02
2019-03-12T04:49:23.734Z,2.02
2019-03-12T04:50:23.708Z,2.01
2019-03-12T04:51:23.710Z,2.08
2019-03-12T04:52:23.693Z,2.08
2019-03-12T04:53:23.678Z,2.04
2019-03-12T04:54:23.668Z,1.97
2019-03-12T04:55:23.678Z,1.99
2019-03-12T04:56:23.650Z,1.97
2019-03-12T04:57:23.654Z,1.99
2019-03-12T04:58:23.626Z,2.02
2019-03-12T04:59:23.616Z,1.99
2019-03-12T05:00:23.606Z,1.99
2019-03-12T05:01:23.605Z,1.99
2019-03-12T05:02:23.593Z,1.98
2019-03-12T05:03:23.590Z,1.93
2019-03-12T05:04:23.564Z,1.93
2019-03-12T05:05:23.556Z,1.90
2019-03-12T05:06:23.544Z,1.93
2019-03-12T05:07:23.534Z,1.87
2019-03-12T05:08:23.523Z,1.91
2019-03-12T05:09:23.533Z,2.06
2019-03-12T05:10:23.502Z,1.99
2019-03-12T05:11:23.492Z,2.04
2019-03-12T05:12:23.482Z,1.97
2019-03-12T05:13:23.471Z,1.94
2019-03-12T05:14:23.464Z,2.04
2019-03-12T05:15:23.463Z,1.93
2019-03-12T05:16:23.450Z,2.01
2019-03-12T05:17:23.434Z,2.10
2019-03-12T05:18:23.419Z,1.90
2019-03-12T05:19:23.409Z,1.89
2019-03-12T05:20:23.399Z,1.90
2019-03-12T05:21:23.401Z,1.99
2019-03-12T05:22:23.378Z,1.99
2019-03-12T05:23:23.368Z,2.06
2019-03-12T05:24:23.356Z,2.08
2019-03-12T05:25:23.346Z,2.04
2019-03-12T05:26:23.336Z,2.09
2019-03-12T05:27:25.014Z,2.06
2019-03-12T05:28:23.317Z,2.09
2019-03-12T05:29:23.306Z,2.01
2019-03-12T05:30:23.296Z,2.02
2019-03-12T05:31:23.287Z,2.06
2019-03-12T05:32:23.273Z,2.08
2019-03-12T05:33:23.274Z,2.01
2019-03-12T05:34:23.485Z,1.99
2019-03-12T05:35:23.276Z,2.10
2019-03-12T05:36:23.234Z,2.01
2019-03-12T05:37:23.226Z,2.08
2019-03-12T05:38:23.214Z,2.09
2019-03-12T05:39:23.218Z,2.01
2019-03-12T05:40:23.191Z,2.10
2019-03-12T05:41:23.186Z,1.99
2019-03-12T05:42:23.168Z,2.04
2019-03-12T05:43:23.158Z,2.04
2019-03-12T05:44:23.147Z,2.04
2019-03-12T05:45:23.158Z,2.09
2019-03-12T05:46:23.129Z,2.08
2019-03-12T05:47:23.115Z,2.08
2019-03-12T05:48:23.108Z,2.02
2019-03-12T05:49:23.093Z,2.09
2019-03-12T05:50:23.084Z,2.02
2019-03-12T05:51:23.083Z,2.04
2019-03-12T05:52:23.062Z,2.10
2019-03-12T05:53:23.052Z,2.10
2019-03-12T05:54:23.041Z,2.12
2019-03-12T05:55:23.042Z,2.02
2019-03-12T05:56:23.020Z,2.15
2019-03-12T05:57:23.039Z,2.15
2019-03-12T05:58:23.016Z,2.04
2019-03-12T05:59:22.990Z,2.08
2019-03-12T06:00:22.984Z,2.04
2019-03-12T06:01:23.050Z,2.16
2019-03-12T06:02:22.961Z,2.16
2019-03-12T06:03:22.976Z,2.12
2019-03-12T06:04:22.938Z,2.16
2019-03-12T06:05:22.927Z,2.17
2019-03-12T06:06:22.920Z,2.15
2019-03-12T06:07:22.906Z,2.28
2019-03-12T06:08:22.896Z,2.22
2019-03-12T06:09:30.274Z,2.22
2019-03-12T06:10:23.875Z,2.19
2019-03-12T06:11:22.865Z,2.20
2019-03-12T06:12:22.854Z,2.17
2019-03-12T06:13:22.844Z,2.15
2019-03-12T06:14:22.834Z,2.27
2019-03-12T06:15:22.834Z,2.20
2019-03-12T06:16:22.815Z,2.20
2019-03-12T06:17:22.803Z,2.27
2019-03-12T06:18:22.792Z,2.35
2019-03-12T06:19:22.782Z,2.38
2019-03-12T06:20:22.773Z,2.37
2019-03-12T06:21:22.772Z,2.38
2019-03-12T06:22:22.750Z,2.46
2019-03-12T06:23:22.739Z,2.48
2019-03-12T06:24:22.730Z,2.46
2019-03-12T06:25:22.719Z,2.52
2019-03-12T06:26:22.708Z,2.55
2019-03-12T06:27:22.706Z,2.59
2019-03-12T06:28:22.686Z,2.56
2019-03-12T06:29:22.674Z,2.63
2019-03-12T06:30:25.707Z,2.63
2019-03-12T06:31:22.653Z,2.64
2019-03-12T06:32:22.641Z,2.76
2019-03-12T06:33:24.278Z,2.74
2019-03-12T06:34:22.620Z,2.70
2019-03-12T06:35:22.609Z,2.70
2019-03-12T06:36:22.600Z,2.84
2019-03-12T06:37:22.588Z,2.77
2019-03-12T06:38:22.579Z,2.79
2019-03-12T06:39:22.578Z,2.81
2019-03-12T06:40:22.556Z,2.85
2019-03-12T06:41:22.544Z,2.85
2019-03-12T06:42:22.535Z,2.84
2019-03-12T06:43:22.524Z,2.85
2019-03-12T06:44:22.516Z,2.92
2019-03-12T06:45:22.515Z,2.87
2019-03-12T06:46:22.493Z,2.92
2019-03-12T06:47:22.482Z,2.92
2019-03-12T06:48:22.471Z,2.94
2019-03-12T06:49:22.461Z,2.89
2019-03-12T06:50:22.450Z,3.06
2019-03-12T06:51:22.450Z,3.06
2019-03-12T06:52:22.428Z,3.10
2019-03-12T06:53:22.419Z,3.20
2019-03-12T06:54:22.409Z,3.07
2019-03-12T06:55:22.398Z,3.16
2019-03-12T06:56:22.386Z,3.20
2019-03-12T06:57:22.388Z,3.23
2019-03-12T06:58:22.366Z,3.27
2019-03-12T06:59:22.357Z,3.34
2019-03-12T07:00:22.345Z,3.39
2019-03-12T07:01:22.336Z,3.49
2019-03-12T07:02:22.324Z,3.60
2019-03-12T07:03:22.325Z,3.58
2019-03-12T07:04:22.303Z,3.60
2019-03-12T07:05:22.293Z,3.79
2019-03-12T07:06:22.283Z,3.61
2019-03-12T07:07:22.271Z,3.85
2019-03-12T07:08:22.260Z,3.92
2019-03-12T07:09:22.259Z,4.00
2019-03-12T07:10:22.238Z,4.06
2019-03-12T07:11:22.234Z,4.14
2019-03-12T07:12:22.217Z,4.06
2019-03-12T07:13:22.206Z,4.18
2019-03-12T07:14:22.836Z,4.01
2019-03-12T07:15:22.196Z,4.16
2019-03-12T07:16:22.182Z,4.06
2019-03-12T07:17:22.168Z,4.15
2019-03-12T07:18:22.155Z,4.10
2019-03-12T07:19:22.144Z,4.01
2019-03-12T07:20:22.140Z,4.01
2019-03-12T07:21:22.138Z,3.92
2019-03-12T07:22:22.113Z,4.00
2019-03-12T07:23:22.103Z,3.98
2019-03-12T07:24:22.092Z,3.88
2019-03-12T07:25:22.082Z,3.92
2019-03-12T07:26:22.070Z,3.89
2019-03-12T07:27:22.073Z,3.78
2019-03-12T07:28:22.050Z,3.85
2019-03-12T07:29:22.039Z,3.97
2019-03-12T07:30:22.029Z,3.96
2019-03-12T07:31:22.111Z,3.96
2019-03-12T07:32:22.008Z,3.88
2019-03-12T07:33:22.016Z,3.97
2019-03-12T07:34:21.987Z,3.96
2019-03-12T07:35:22.839Z,3.97
2019-03-12T07:36:21.966Z,3.97
2019-03-12T07:37:21.955Z,4.03
2019-03-12T07:38:21.945Z,4.04
2019-03-12T07:39:21.945Z,3.94
2019-03-12T07:40:21.924Z,4.04
2019-03-12T07:41:30.201Z,4.04
2019-03-12T07:42:22.903Z,4.08
2019-03-12T07:43:21.894Z,4.10
2019-03-12T07:44:21.883Z,4.06
2019-03-12T07:45:21.888Z,4.21
2019-03-12T07:46:21.862Z,4.14
2019-03-12T07:47:34.879Z,4.15
2019-03-12T07:48:22.839Z,4.21
2019-03-12T07:49:21.829Z,4.25
2019-03-12T07:50:21.819Z,4.26
2019-03-12T07:51:21.829Z,4.39
2019-03-12T07:52:21.798Z,4.24
2019-03-12T07:53:21.788Z,4.26
2019-03-12T07:54:21.776Z,4.26
2019-03-12T07:55:21.766Z,4.32
2019-03-12T07:56:21.758Z,4.37
2019-03-12T07:57:21.755Z,4.43
2019-03-12T07:58:34.918Z,4.36
2019-03-12T07:59:22.727Z,4.42
2019-03-12T08:00:21.720Z,4.44
2019-03-12T08:01:24.822Z,4.40
2019-03-12T08:02:21.695Z,4.42
2019-03-12T08:03:21.694Z,4.51
2019-03-12T08:04:21.673Z,4.46
2019-03-12T08:05:21.663Z,4.44
2019-03-12T08:06:21.654Z,4.50
2019-03-12T08:07:21.655Z,4.51
2019-03-12T08:08:21.631Z,4.43
2019-03-12T08:09:21.633Z,4.50
2019-03-12T08:10:21.612Z,4.54
2019-03-12T08:11:21.599Z,4.57
2019-03-12T08:12:21.589Z,4.47
2019-03-12T08:13:21.578Z,4.55
2019-03-12T08:14:21.568Z,4.58
2019-03-12T08:15:23.363Z,4.59
2019-03-12T08:16:21.548Z,4.65
2019-03-12T08:17:21.537Z,4.61
2019-03-12T08:18:21.526Z,4.58
2019-03-12T08:19:21.516Z,4.61
2019-03-12T08:20:21.510Z,4.65
2019-03-12T08:21:22.783Z,4.55
2019-03-12T08:22:21.485Z,4.67
2019-03-12T08:23:21.473Z,4.76
2019-03-12T08:24:21.463Z,4.77
2019-03-12T08:25:21.452Z,4.72
2019-03-12T08:26:21.444Z,4.80
2019-03-12T08:27:21.452Z,4.86
2019-03-12T08:28:21.421Z,4.79
2019-03-12T08:29:21.415Z,4.86
2019-03-12T08:30:21.399Z,4.88
2019-03-12T08:31:21.388Z,4.89
2019-03-12T08:32:23.762Z,4.89
2019-03-12T08:33:21.391Z,4.99
2019-03-12T08:34:21.356Z,4.98
2019-03-12T08:35:21.349Z,5.01
2019-03-12T08:36:21.334Z,5.04
2019-03-12T08:37:21.321Z,5.01
2019-03-12T08:38:21.312Z,5.04
2019-03-12T08:39:21.311Z,5.10
2019-03-12T08:40:21.289Z,5.04
2019-03-12T08:41:21.278Z,5.12
2019-03-12T08:42:21.290Z,5.16
2019-03-12T08:43:21.256Z,5.13
2019-03-12T08:44:21.245Z,5.16
2019-03-12T08:45:21.245Z,5.09
2019-03-12T08:46:22.266Z,5.23
2019-03-12T08:47:21.212Z,5.23
2019-03-12T08:48:21.201Z,5.22
2019-03-12T08:49:21.190Z,5.25
2019-03-12T08:50:21.180Z,5.35
2019-03-12T08:51:21.182Z,5.28
2019-03-12T08:52:21.157Z,5.31
2019-03-12T08:53:21.148Z,5.35
2019-03-12T08:54:21.557Z,5.49
2019-03-12T08:55:21.128Z,5.46
2019-03-12T08:56:21.114Z,5.50
2019-03-12T08:57:21.117Z,5.52
2019-03-12T08:58:21.093Z,5.53
2019-03-12T08:59:21.087Z,5.63
2019-03-12T09:00:23.947Z,5.71
2019-03-12T09:01:21.062Z,5.73
2019-03-12T09:02:21.050Z,5.74
2019-03-12T09:03:21.059Z,5.74
2019-03-12T09:04:21.029Z,5.78
2019-03-12T09:05:21.022Z,5.82
2019-03-12T09:06:21.008Z,5.86
2019-03-12T09:07:20.997Z,5.86
2019-03-12T09:08:20.987Z,5.86
2019-03-12T09:09:20.989Z,5.81
2019-03-12T09:10:20.965Z,5.83
2019-03-12T09:11:20.956Z,5.83
2019-03-12T09:12:20.944Z,5.91
2019-03-12T09:13:20.935Z,5.85
2019-03-12T09:14:20.924Z,5.89
2019-03-12T09:15:20.926Z,5.91
2019-03-12T09:16:20.903Z,6.01
2019-03-12T09:17:20.891Z,5.95
2019-03-12T09:18:20.882Z,5.91
2019-03-12T09:19:20.870Z,6.00
2019-03-12T09:20:20.864Z,6.00
2019-03-12T09:21:20.862Z,6.00
2019-03-12T09:22:20.839Z,5.92
2019-03-12T09:23:20.833Z,6.04
2019-03-12T09:24:20.816Z,6.04
2019-03-12T09:25:20.806Z,6.11
2019-03-12T09:26:20.794Z,6.07
2019-03-12T09:27:20.795Z,6.11
2019-03-12T09:28:20.776Z,6.11
2019-03-12T09:29:20.763Z,6.19
2019-03-12T09:30:20.752Z,6.21
2019-03-12T09:31:20.745Z,6.21
2019-03-12T09:32:20.800Z,6.28
2019-03-12T09:33:20.736Z,6.32
2019-03-12T09:34:20.709Z,6.33
2019-03-12T09:35:20.701Z,6.28
2019-03-12T09:36:20.689Z,6.35
2019-03-12T09:37:20.680Z,6.33
2019-03-12T09:38:20.667Z,6.38
2019-03-12T09:39:20.664Z,6.44
2019-03-12T09:40:20.649Z,6.38
2019-03-12T09:41:20.630Z,6.43
2019-03-12T09:42:20.620Z,6.48
2019-03-12T09:43:20.631Z,6.51
2019-03-12T09:44:20.603Z,6.59
2019-03-12T09:45:20.597Z,6.48
2019-03-12T09:46:20.576Z,6.51
2019-03-12T09:47:20.565Z,6.58
2019-03-12T09:48:20.555Z,6.48
2019-03-12T09:49:20.543Z,6.65
2019-03-12T09:50:20.532Z,6.59
2019-03-12T09:51:20.531Z,6.65
2019-03-12T09:52:20.511Z,6.65
2019-03-12T09:53:20.508Z,6.73
2019-03-12T09:54:20.489Z,6.72
2019-03-12T09:55:20.487Z,6.84
2019-03-12T09:56:20.466Z,6.77
2019-03-12T09:57:20.473Z,6.83
2019-03-12T09:58:20.445Z,6.84
2019-03-12T09:59:20.435Z,6.83
2019-03-12T10:00:20.423Z,6.76
2019-03-12T10:01:20.414Z,6.83
2019-03-12T10:02:20.402Z,6.77
2019-03-12T10:03:20.410Z,6.80
2019-03-12T10:04:20.404Z,6.91
2019-03-12T10:05:20.372Z,6.97
2019-03-12T10:06:20.359Z,6.97
2019-03-12T10:07:20.350Z,6.97
2019-03-12T10:08:20.338Z,6.94
2019-03-12T10:09:20.339Z,6.98
2019-03-12T10:10:20.319Z,6.98
2019-03-12T10:11:20.307Z,6.97
2019-03-12T10:12:20.298Z,6.98
2019-03-12T10:13:20.285Z,7.01
2019-03-12T10:14:20.275Z,6.94
2019-03-12T10:15:20.275Z,7.05
2019-03-12T10:16:20.254Z,7.02
2019-03-12T10:17:20.243Z,6.95
2019-03-12T10:18:20.233Z,6.99
2019-03-12T10:19:20.221Z,7.07
2019-03-12T10:20:20.216Z,7.02
2019-03-12T10:21:20.240Z,7.07
2019-03-12T10:22:20.189Z,7.08
2019-03-12T10:23:20.178Z,7.07
2019-03-12T10:24:20.168Z,7.07
2019-03-12T10:25:20.158Z,7.17
2019-03-12T10:26:20.147Z,7.13
2019-03-12T10:27:20.145Z,7.17
2019-03-12T10:28:20.132Z,7.23
2019-03-12T10:29:20.115Z,7.20
2019-03-12T10:30:20.102Z,7.19
2019-03-12T10:31:20.095Z,7.19
2019-03-12T10:32:20.086Z,7.15
2019-03-12T10:33:20.085Z,7.24
2019-03-12T10:34:28.967Z,7.20
2019-03-12T10:35:21.050Z,7.17
2019-03-12T10:36:20.229Z,7.15
2019-03-12T10:37:20.029Z,7.26
2019-03-12T10:38:20.021Z,7.22
2019-03-12T10:39:20.028Z,7.24
2019-03-12T10:40:20.006Z,7.26
2019-03-12T10:41:19.986Z,7.27
2019-03-12T10:42:19.975Z,7.35
2019-03-12T10:43:19.965Z,7.32
2019-03-12T10:44:19.956Z,7.37
2019-03-12T10:45:19.954Z,7.40
2019-03-12T10:46:19.932Z,7.40
2019-03-12T10:47:19.938Z,7.41
2019-03-12T10:48:19.911Z,7.38
2019-03-12T10:49:19.900Z,7.41
2019-03-12T10:50:19.890Z,7.40
2019-03-12T10:51:19.894Z,7.40
2019-03-12T10:52:19.872Z,7.44
2019-03-12T10:53:19.859Z,7.53
2019-03-12T10:54:19.847Z,7.44
2019-03-12T10:55:19.837Z,7.58
2019-03-12T10:56:19.829Z,7.45
2019-03-12T10:57:21.643Z,7.67
2019-03-12T10:58:19.806Z,7.66
2019-03-12T10:59:19.795Z,7.63
2019-03-12T11:00:19.795Z,7.66
2019-03-12T11:01:19.777Z,7.63
2019-03-12T11:02:19.763Z,7.69
2019-03-12T11:03:19.764Z,7.74
2019-03-12T11:04:19.740Z,7.72
2019-03-12T11:05:19.732Z,7.81
2019-03-12T11:06:19.719Z,7.79
2019-03-12T11:07:19.708Z,7.82
2019-03-12T11:08:19.696Z,7.87
2019-03-12T11:09:19.704Z,7.84
2019-03-12T11:10:19.676Z,7.90
2019-03-12T11:11:19.665Z,7.85
2019-03-12T11:12:19.653Z,7.79
2019-03-12T11:13:19.643Z,7.87
2019-03-12T11:14:19.631Z,7.87
2019-03-12T11:15:19.632Z,7.90
2019-03-12T11:16:19.613Z,7.87
2019-03-12T11:17:19.598Z,7.92
2019-03-12T11:18:19.588Z,7.89
2019-03-12T11:19:19.577Z,7.94
2019-03-12T11:20:19.575Z,8.00
2019-03-12T11:21:19.574Z,8.02
2019-03-12T11:22:19.545Z,7.96
2019-03-12T11:23:19.532Z,8.03
2019-03-12T11:24:19.523Z,7.97
2019-03-12T11:25:27.451Z,7.97
2019-03-12T11:26:20.509Z,8.03
2019-03-12T11:27:19.489Z,7.94
2019-03-12T11:28:19.477Z,7.97
2019-03-12T11:29:19.466Z,8.03
2019-03-12T11:30:19.456Z,8.12
2019-03-12T11:31:19.445Z,8.14
2019-03-12T11:32:19.445Z,8.14
2019-03-12T11:33:19.422Z,8.18
2019-03-12T11:34:19.413Z,8.25
2019-03-12T11:35:19.402Z,8.28
2019-03-12T11:36:19.412Z,8.26
2019-03-12T11:37:19.398Z,8.26
2019-03-12T11:38:19.389Z,8.35
2019-03-12T11:39:19.358Z,8.30
2019-03-12T11:40:19.346Z,8.32
2019-03-12T11:41:19.345Z,8.33
2019-03-12T11:42:19.469Z,8.42
2019-03-12T11:43:19.331Z,8.42
2019-03-12T11:44:19.314Z,8.42
2019-03-12T11:45:20.577Z,8.40
2019-03-12T11:46:20.281Z,8.35
2019-03-12T11:47:19.271Z,8.35
2019-03-12T11:48:19.261Z,8.39
2019-03-12T11:49:19.279Z,8.44
2019-03-12T11:50:19.334Z,8.42
2019-03-12T11:51:19.228Z,8.45
2019-03-12T11:52:19.217Z,8.48
2019-03-12T11:53:19.208Z,8.42
2019-03-12T11:54:19.220Z,8.53
2019-03-12T11:55:19.209Z,8.58
2019-03-12T11:56:19.185Z,8.55
2019-03-12T11:57:19.165Z,8.55
2019-03-12T11:58:19.165Z,8.63
2019-03-12T11:59:19.144Z,8.60
2019-03-12T12:00:19.650Z,8.71
2019-03-12T12:01:19.121Z,8.73
2019-03-12T12:02:19.121Z,8.75
2019-03-12T12:03:19.100Z,8.72
2019-03-12T12:04:19.090Z,8.88
2019-03-12T12:05:19.080Z,8.87
2019-03-12T12:06:19.136Z,8.96
2019-03-12T12:07:19.057Z,8.99
2019-03-12T12:08:19.056Z,8.86
2019-03-12T12:09:19.055Z,8.88
2019-03-12T12:10:19.168Z,8.91
2019-03-12T12:11:19.012Z,8.91
2019-03-12T12:12:19.006Z,8.99
2019-03-12T12:13:18.991Z,9.05
2019-03-12T12:14:18.992Z,8.97
2019-03-12T12:15:18.969Z,9.01
2019-03-12T12:16:18.958Z,9.04
2019-03-12T12:17:18.946Z,9.01
2019-03-12T12:18:18.938Z,9.06
2019-03-12T12:19:18.924Z,8.99
2019-03-12T12:20:29.010Z,9.09
2019-03-12T12:21:19.904Z,9.15
2019-03-12T12:22:18.892Z,9.05
2019-03-12T12:23:18.881Z,9.10
2019-03-12T12:24:18.869Z,9.20
2019-03-12T12:25:18.861Z,9.10
2019-03-12T12:26:18.872Z,9.15
2019-03-12T12:27:18.836Z,9.23
2019-03-12T12:28:18.825Z,9.16
2019-03-12T12:29:18.813Z,9.24
2019-03-12T12:30:18.803Z,9.18
2019-03-12T12:31:18.792Z,9.25
2019-03-12T12:32:18.793Z,9.25
2019-03-12T12:33:18.770Z,9.23
2019-03-12T12:34:18.759Z,9.15
2019-03-12T12:35:18.751Z,9.13
2019-03-12T12:36:18.737Z,9.06
2019-03-12T12:37:18.732Z,9.13
2019-03-12T12:38:18.728Z,9.18
2019-03-12T12:39:18.712Z,9.20
2019-03-12T12:40:18.697Z,9.15
2019-03-12T12:41:18.684Z,9.16
2019-03-12T12:42:18.673Z,9.16
2019-03-12T12:43:18.662Z,9.06
2019-03-12T12:44:18.660Z,9.15
2019-03-12T12:45:18.641Z,9.15
2019-03-12T12:46:18.628Z,9.18
2019-03-12T12:47:18.624Z,9.12
2019-03-12T12:48:18.607Z,9.15
2019-03-12T12:49:18.596Z,9.12
2019-03-12T12:50:18.602Z,9.15
2019-03-12T12:51:18.574Z,9.13
2019-03-12T12:52:18.563Z,9.02
2019-03-12T12:53:18.551Z,9.10
2019-03-12T12:54:18.541Z,8.99
2019-03-12T12:55:18.537Z,9.10
2019-03-12T12:56:18.529Z,8.99
2019-03-12T12:57:18.507Z,9.05
2019-03-12T12:58:18.514Z,9.01
2019-03-12T12:59:18.487Z,9.06
2019-03-12T13:00:18.475Z,9.09
2019-03-12T13:01:18.464Z,8.99
2019-03-12T13:02:18.464Z,9.05
2019-03-12T13:03:18.465Z,9.06
2019-03-12T13:04:18.431Z,9.01
2019-03-12T13:05:18.419Z,9.01
2019-03-12T13:06:18.409Z,8.97
2019-03-12T13:07:18.398Z,9.06
2019-03-12T13:08:18.400Z,9.04
2019-03-12T13:09:18.376Z,9.06
2019-03-12T13:10:18.368Z,9.10
2019-03-12T13:11:18.357Z,9.06
2019-03-12T13:12:18.344Z,9.04
2019-03-12T13:13:18.340Z,9.15
2019-03-12T13:14:18.335Z,9.12
2019-03-12T13:15:18.312Z,9.18
2019-03-12T13:16:25.143Z,9.12
2019-03-12T13:17:19.290Z,9.16
2019-03-12T13:18:18.280Z,9.20